createdAt,value
2023-04-28T00:00:43.055Z,6
2023-04-28T00:01:50.130Z,6
2023-04-28T00:02:57.411Z,6
2023-04-28T00:04:04.190Z,6
2023-04-28T00:05:11.025Z,6
2023-04-28T00:06:18.061Z,6
2023-04-28T00:07:25.212Z,6
2023-04-28T00:08:32.274Z,6
2023-04-28T00:09:38.854Z,6
2023-04-28T00:10:46.228Z,6
2023-04-28T00:11:53.073Z,6
2023-04-28T00:13:00.162Z,6
2023-04-28T00:14:07.268Z,6
2023-04-28T00:15:13.868Z,6
2023-04-28T00:16:21.039Z,6
2023-04-28T00:18:35.164Z,6
2023-04-28T00:19:42.272Z,6
2023-04-28T00:20:48.810Z,6
2023-04-28T00:21:56.023Z,6
2023-04-28T00:23:03.058Z,6
2023-04-28T00:24:10.238Z,6
2023-04-28T00:25:16.756Z,6
2023-04-28T00:26:23.898Z,6
2023-04-28T00:27:30.995Z,6
2023-04-28T00:28:38.054Z,6
2023-04-28T00:29:45.178Z,6
2023-04-28T00:30:51.774Z,6
2023-04-28T00:31:58.984Z,6
2023-04-28T00:33:06.088Z,6
2023-04-28T00:34:13.167Z,6
2023-04-28T00:35:20.232Z,5.9
2023-04-28T00:36:27.356Z,6
2023-04-28T00:37:33.832Z,5.9
2023-04-28T00:38:40.941Z,5.9
2023-04-28T00:40:55.196Z,6
2023-04-28T00:42:01.825Z,6
2023-04-28T00:43:09.056Z,6
2023-04-28T00:44:16.213Z,6
2023-04-28T00:45:23.090Z,5.9
2023-04-28T00:46:30.193Z,5.9
2023-04-28T00:47:36.813Z,5.9
2023-04-28T00:48:43.891Z,6
2023-04-28T00:49:51.007Z,6
2023-04-28T00:50:58.097Z,6
2023-04-28T00:52:06.545Z,5.9
2023-04-28T00:53:11.753Z,6
2023-04-28T00:54:19.246Z,6
2023-04-28T00:55:26.010Z,6
2023-04-28T00:56:33.090Z,6
2023-04-28T00:57:40.533Z,6
2023-04-28T00:58:46.789Z,6
2023-04-28T00:59:53.918Z,6
2023-04-28T01:01:01.077Z,5.9
2023-04-28T01:02:08.151Z,5.9
2023-04-28T01:03:15.434Z,5.9
2023-04-28T01:04:22.008Z,5.9
2023-04-28T01:05:28.875Z,5.9
2023-04-28T01:06:36.019Z,6
2023-04-28T01:07:43.134Z,5.9
2023-04-28T01:08:50.265Z,6
2023-04-28T01:09:56.812Z,6
2023-04-28T01:11:03.925Z,6
2023-04-28T01:12:10.989Z,6
2023-04-28T01:13:18.218Z,6
2023-04-28T01:14:25.338Z,6
2023-04-28T01:15:31.859Z,6
2023-04-28T01:16:39.533Z,6
2023-04-28T01:17:46.049Z,6
2023-04-28T01:18:53.186Z,5.9
2023-04-28T01:20:00.327Z,6
2023-04-28T01:22:13.964Z,6
2023-04-28T01:23:21.026Z,6
2023-04-28T01:24:28.177Z,6
2023-04-28T01:25:35.309Z,6
2023-04-28T01:26:41.845Z,6
2023-04-28T01:27:48.999Z,6
2023-04-28T01:28:56.110Z,6
2023-04-28T01:30:03.176Z,5.9
2023-04-28T01:31:10.368Z,6
2023-04-28T01:32:16.837Z,5.9
2023-04-28T01:33:23.985Z,6
2023-04-28T01:34:31.020Z,6
2023-04-28T01:35:38.225Z,5.9
2023-04-28T01:36:45.310Z,5.9
2023-04-28T01:37:51.855Z,5.9
2023-04-28T01:38:59.013Z,5.9
2023-04-28T01:40:06.630Z,5.9
2023-04-28T01:41:13.134Z,5.9
2023-04-28T01:42:20.349Z,5.9
2023-04-28T01:43:26.944Z,5.9
2023-04-28T01:44:33.974Z,5.9
2023-04-28T01:45:41.098Z,6
2023-04-28T01:46:48.216Z,5.9
2023-04-28T01:47:55.418Z,5.9
2023-04-28T01:49:01.842Z,5.9
2023-04-28T01:50:08.995Z,5.9
2023-04-28T01:51:16.180Z,5.9
2023-04-28T01:52:23.167Z,5.9
2023-04-28T01:53:29.819Z,5.9
2023-04-28T01:54:36.876Z,5.9
2023-04-28T01:55:43.987Z,5.9
2023-04-28T01:56:51.134Z,5.9
2023-04-28T01:57:58.180Z,5.9
2023-04-28T01:59:04.826Z,5.9
2023-04-28T02:00:11.833Z,6
2023-04-28T02:01:19.106Z,6
2023-04-28T02:02:26.175Z,6
2023-04-28T02:03:33.332Z,6
2023-04-28T02:04:39.873Z,6
2023-04-28T02:05:46.946Z,6
2023-04-28T02:06:54.041Z,6
2023-04-28T02:09:08.270Z,5.9
2023-04-28T02:10:14.805Z,5.9
2023-04-28T02:11:21.919Z,5.9
2023-04-28T02:12:29.015Z,5.9
2023-04-28T02:13:36.086Z,5.9
2023-04-28T02:14:43.199Z,5.9
2023-04-28T02:15:49.869Z,6
2023-04-28T02:16:56.917Z,6
2023-04-28T02:18:04.092Z,6
2023-04-28T02:19:11.129Z,5.9
2023-04-28T02:20:18.264Z,6
2023-04-28T02:21:24.794Z,5.9
2023-04-28T02:22:31.949Z,6
2023-04-28T02:23:39.073Z,5.9
2023-04-28T02:25:53.222Z,5.9
2023-04-28T02:26:59.859Z,5.9
2023-04-28T02:28:06.942Z,6
2023-04-28T02:29:14.084Z,5.9
2023-04-28T02:30:21.138Z,5.9
2023-04-28T02:31:28.293Z,5.9
2023-04-28T02:32:34.874Z,6
2023-04-28T02:33:42.027Z,5.9
2023-04-28T02:34:49.098Z,5.9
2023-04-28T02:35:56.120Z,5.9
2023-04-28T02:37:03.260Z,5.9
2023-04-28T02:38:09.877Z,5.9
2023-04-28T02:39:17.027Z,6
2023-04-28T02:40:24.045Z,5.9
2023-04-28T02:41:31.173Z,6
2023-04-28T02:42:38.321Z,6
2023-04-28T02:43:45.423Z,5.9
2023-04-28T02:44:52.429Z,5.9
2023-04-28T02:45:59.092Z,5.9
2023-04-28T02:47:06.213Z,5.9
2023-04-28T02:48:13.257Z,5.9
2023-04-28T02:49:19.932Z,5.9
2023-04-28T02:50:26.988Z,5.9
2023-04-28T02:51:34.053Z,5.9
2023-04-28T02:52:41.151Z,5.9
2023-04-28T02:53:48.257Z,5.9
2023-04-28T02:54:54.898Z,5.9
2023-04-28T02:56:01.918Z,5.9
2023-04-28T02:57:09.080Z,5.9
2023-04-28T02:58:16.164Z,5.9
2023-04-28T02:59:23.306Z,5.9
2023-04-28T03:00:29.855Z,5.9
2023-04-28T03:01:37.039Z,5.9
2023-04-28T03:02:44.114Z,5.9
2023-04-28T03:03:51.378Z,5.9
2023-04-28T03:04:58.364Z,5.9
2023-04-28T03:06:04.919Z,6
2023-04-28T03:07:11.931Z,5.9
2023-04-28T03:08:19.084Z,5.9
2023-04-28T03:09:26.220Z,5.9
2023-04-28T03:10:33.305Z,5.9
2023-04-28T03:11:39.916Z,5.9
2023-04-28T03:12:47.030Z,5.9
2023-04-28T03:13:54.121Z,5.9
2023-04-28T03:15:01.181Z,5.9
2023-04-28T03:16:08.354Z,5.9
2023-04-28T03:17:14.888Z,5.9
2023-04-28T03:18:21.941Z,5.9
2023-04-28T03:19:29.142Z,5.9
2023-04-28T03:20:36.309Z,5.9
2023-04-28T03:21:43.396Z,5.9
2023-04-28T03:22:49.895Z,5.9
2023-04-28T03:23:57.046Z,5.9
2023-04-28T03:25:04.098Z,5.9
2023-04-28T03:26:11.179Z,5.9
2023-04-28T03:27:18.322Z,5.9
2023-04-28T03:29:32.022Z,5.9
2023-04-28T03:30:39.148Z,5.9
2023-04-28T03:31:46.283Z,5.9
2023-04-28T03:32:52.884Z,5.9
2023-04-28T03:33:59.965Z,5.9
2023-04-28T03:35:06.973Z,5.9
2023-04-28T03:37:21.221Z,5.9
2023-04-28T03:38:27.798Z,5.9
2023-04-28T03:39:34.945Z,5.9
2023-04-28T03:40:42.080Z,5.9
2023-04-28T03:41:49.127Z,5.9
2023-04-28T03:42:56.221Z,5.9
2023-04-28T03:44:02.876Z,5.9
2023-04-28T03:45:09.909Z,5.9
2023-04-28T03:46:17.063Z,5.9
2023-04-28T03:47:24.680Z,5.9
2023-04-28T03:48:31.221Z,5.9
2023-04-28T03:49:37.819Z,5.9
2023-04-28T03:50:44.914Z,5.9
2023-04-28T03:51:51.996Z,5.9
2023-04-28T03:52:59.210Z,5.9
2023-04-28T03:54:06.313Z,5.9
2023-04-28T03:55:12.781Z,5.9
2023-04-28T03:56:19.992Z,5.9
2023-04-28T03:57:27.089Z,5.9
2023-04-28T03:58:34.163Z,5.9
2023-04-28T03:59:41.253Z,5.9
2023-04-28T04:00:47.850Z,5.9
2023-04-28T04:01:54.957Z,5.9
2023-04-28T04:03:02.178Z,5.9
2023-04-28T04:04:09.475Z,5.9
2023-04-28T04:05:16.409Z,5.9
2023-04-28T04:06:22.825Z,5.9
2023-04-28T04:07:29.961Z,5.9
2023-04-28T04:08:37.083Z,5.9
2023-04-28T04:09:44.169Z,5.9
2023-04-28T04:10:51.270Z,5.9
2023-04-28T04:11:57.904Z,5.9
2023-04-28T04:13:05.512Z,5.9
2023-04-28T04:14:12.109Z,5.9
2023-04-28T04:15:19.198Z,5.9
2023-04-28T04:16:26.435Z,5.9
2023-04-28T04:17:32.882Z,5.9
2023-04-28T04:18:39.995Z,5.9
2023-04-28T04:19:47.112Z,5.9
2023-04-28T04:20:54.144Z,5.9
2023-04-28T04:22:01.293Z,5.9
2023-04-28T04:23:07.843Z,5.9
2023-04-28T04:24:15.300Z,5.9
2023-04-28T04:25:23.277Z,5.9
2023-04-28T04:26:29.183Z,5.9
2023-04-28T04:27:36.345Z,5.9
2023-04-28T04:28:42.880Z,5.9
2023-04-28T04:29:49.993Z,5.9
2023-04-28T04:30:57.106Z,5.9
2023-04-28T04:33:11.283Z,5.9
2023-04-28T04:34:18.191Z,5.9
2023-04-28T04:35:24.978Z,5.9
2023-04-28T04:36:32.103Z,5.9
2023-04-28T04:37:39.233Z,5.9
2023-04-28T04:38:46.332Z,5.9
2023-04-28T04:39:52.892Z,5.9
2023-04-28T04:40:59.979Z,5.9
2023-04-28T04:42:22.657Z,5.9
2023-04-28T04:43:14.219Z,5.9
2023-04-28T04:44:21.274Z,5.9
2023-04-28T04:45:27.947Z,5.9
2023-04-28T04:46:35.124Z,6
2023-04-28T04:47:42.213Z,5.9
2023-04-28T04:48:49.298Z,6
2023-04-28T04:49:56.276Z,6
2023-04-28T04:51:03.408Z,5.9
2023-04-28T04:52:10.039Z,5.9
2023-04-28T04:53:17.137Z,5.9
2023-04-28T04:54:24.215Z,5.9
2023-04-28T04:55:31.308Z,5.9
2023-04-28T04:56:37.906Z,5.9
2023-04-28T04:57:45.066Z,5.9
2023-04-28T04:58:52.141Z,5.9
2023-04-28T04:59:59.209Z,5.9
2023-04-28T05:01:05.835Z,5.9
2023-04-28T05:02:12.960Z,5.9
2023-04-28T05:03:20.099Z,5.9
2023-04-28T05:05:34.262Z,5.9
2023-04-28T05:06:40.777Z,5.9
2023-04-28T05:07:47.987Z,5.9
2023-04-28T05:08:55.041Z,6
2023-04-28T05:10:02.097Z,5.9
2023-04-28T05:11:09.268Z,5.9
2023-04-28T05:12:15.856Z,5.9
2023-04-28T05:13:22.935Z,5.9
2023-04-28T05:14:30.161Z,6
2023-04-28T05:15:37.159Z,6
2023-04-28T05:16:44.276Z,5.9
2023-04-28T05:17:50.820Z,5.9
2023-04-28T05:18:57.985Z,6
2023-04-28T05:20:05.044Z,6
2023-04-28T05:21:12.153Z,5.9
2023-04-28T05:22:19.348Z,5.9
2023-04-28T05:23:25.872Z,5.9
2023-04-28T05:24:32.983Z,6
2023-04-28T05:25:40.049Z,6
2023-04-28T05:26:47.201Z,6
2023-04-28T05:27:54.232Z,6
2023-04-28T05:29:00.832Z,6
2023-04-28T05:30:07.987Z,6
2023-04-28T05:31:15.109Z,6
2023-04-28T05:32:22.295Z,6
2023-04-28T05:33:29.445Z,6
2023-04-28T05:34:35.897Z,6.1
2023-04-28T05:36:50.096Z,6.1
2023-04-28T05:37:57.181Z,6.1
2023-04-28T05:39:04.250Z,6.1
2023-04-28T05:40:10.858Z,6.1
2023-04-28T05:41:18.511Z,6.1
2023-04-28T05:42:25.079Z,6.1
2023-04-28T05:43:32.171Z,6.1
2023-04-28T05:44:41.155Z,6.1
2023-04-28T05:45:45.920Z,6.1
2023-04-28T05:46:53.111Z,6.1
2023-04-28T05:48:00.204Z,6.1
2023-04-28T05:49:07.284Z,6.1
2023-04-28T05:50:14.331Z,6.2
2023-04-28T05:51:20.896Z,6.2
2023-04-28T05:52:28.007Z,6.2
2023-04-28T05:53:35.117Z,6.1
2023-04-28T05:54:42.779Z,6.2
2023-04-28T05:55:49.355Z,6.1
2023-04-28T05:56:55.921Z,6.2
2023-04-28T05:58:02.972Z,6.2
2023-04-28T05:59:10.229Z,6.2
2023-04-28T06:00:17.254Z,6.2
2023-04-28T06:01:24.284Z,6.2
2023-04-28T06:02:30.952Z,6.2
2023-04-28T06:03:38.173Z,6.2
2023-04-28T06:04:45.374Z,6.3
2023-04-28T06:05:52.246Z,6.3
2023-04-28T06:06:59.344Z,6.3
2023-04-28T06:08:05.905Z,6.3
2023-04-28T06:09:13.023Z,6.3
2023-04-28T06:10:20.161Z,6.3
2023-04-28T06:11:27.307Z,6.3
2023-04-28T06:12:34.324Z,6.3
2023-04-28T06:13:40.910Z,6.3
2023-04-28T06:14:48.013Z,6.3
2023-04-28T06:15:55.185Z,6.3
2023-04-28T06:17:02.227Z,6.4
2023-04-28T06:18:08.907Z,6.4
2023-04-28T06:19:15.953Z,6.4
2023-04-28T06:20:22.995Z,6.4
2023-04-28T06:21:30.186Z,6.4
2023-04-28T06:22:37.255Z,6.4
2023-04-28T06:23:43.825Z,6.5
2023-04-28T06:24:50.896Z,6.5
2023-04-28T06:25:58.056Z,6.4
2023-04-28T06:27:05.165Z,6.5
2023-04-28T06:28:12.221Z,6.5
2023-04-28T06:29:18.872Z,6.5
2023-04-28T06:30:26.000Z,6.6
2023-04-28T06:31:33.074Z,6.6
2023-04-28T06:33:47.266Z,6.7
2023-04-28T06:34:53.842Z,6.6
2023-04-28T06:36:00.914Z,6.7
2023-04-28T06:37:08.107Z,6.7
2023-04-28T06:38:15.151Z,6.7
2023-04-28T06:40:28.919Z,6.7
2023-04-28T06:41:35.978Z,6.8
2023-04-28T06:42:43.097Z,6.8
2023-04-28T06:43:50.176Z,6.8
2023-04-28T06:44:57.532Z,6.8
2023-04-28T06:46:03.848Z,6.8
2023-04-28T06:47:10.984Z,6.8
2023-04-28T06:48:18.096Z,6.8
2023-04-28T06:49:25.212Z,6.8
2023-04-28T06:50:32.263Z,6.8
2023-04-28T06:51:38.865Z,6.8
2023-04-28T06:52:46.033Z,6.8
2023-04-28T06:53:53.052Z,6.9
2023-04-28T06:55:00.205Z,6.9
2023-04-28T06:56:08.706Z,7
2023-04-28T06:57:13.868Z,7
2023-04-28T06:58:21.495Z,7
2023-04-28T06:59:28.111Z,7
2023-04-28T07:00:35.213Z,7
2023-04-28T07:01:42.338Z,7.1
2023-04-28T07:02:49.155Z,7.1
2023-04-28T07:03:56.197Z,7.1
2023-04-28T07:05:03.093Z,7.2
2023-04-28T07:06:10.182Z,7.2
2023-04-28T07:07:17.353Z,7.2
2023-04-28T07:08:23.885Z,7.2
2023-04-28T07:09:31.628Z,7.3
2023-04-28T07:10:38.091Z,7.4
2023-04-28T07:11:45.206Z,7.4
2023-04-28T07:12:52.304Z,7.4
2023-04-28T07:13:58.927Z,7.4
2023-04-28T07:15:06.501Z,7.5
2023-04-28T07:16:13.157Z,7.5
2023-04-28T07:17:20.216Z,7.5
2023-04-28T07:18:27.349Z,7.7
2023-04-28T07:19:33.896Z,7.7
2023-04-28T07:20:40.978Z,7.7
2023-04-28T07:21:48.158Z,7.8
2023-04-28T07:22:55.241Z,7.8
2023-04-28T07:24:02.391Z,7.9
2023-04-28T07:25:08.947Z,7.9
2023-04-28T07:26:16.054Z,7.9
2023-04-28T07:27:23.106Z,8
2023-04-28T07:28:30.232Z,8.1
2023-04-28T07:29:37.357Z,8.1
2023-04-28T07:30:43.916Z,8.1
2023-04-28T07:31:51.072Z,8.3
2023-04-28T07:32:58.241Z,8.6
2023-04-28T07:34:05.283Z,8.8
2023-04-28T07:35:12.331Z,9.1
2023-04-28T07:36:18.946Z,9.3
2023-04-28T07:37:26.078Z,9.3
2023-04-28T07:38:33.132Z,9.4
2023-04-28T07:39:40.280Z,9.5
2023-04-28T07:40:46.816Z,9.6
2023-04-28T07:41:53.957Z,9.6
2023-04-28T07:44:08.136Z,9.6
2023-04-28T07:45:15.299Z,9.7
2023-04-28T07:46:22.364Z,9.5
2023-04-28T07:47:28.964Z,9.5
2023-04-28T07:48:36.097Z,9.6
2023-04-28T07:49:43.255Z,9.8
2023-04-28T07:50:50.266Z,10
2023-04-28T07:51:56.907Z,10.1
2023-04-28T07:53:03.968Z,10.2
2023-04-28T07:54:11.023Z,10.4
2023-04-28T07:55:18.147Z,10.6
2023-04-28T07:56:25.302Z,10.8
2023-04-28T07:57:31.870Z,10.9
2023-04-28T07:58:38.969Z,10.8
2023-04-28T07:59:46.094Z,10.7
2023-04-28T08:02:00.807Z,10.6
2023-04-28T08:03:07.013Z,10.5
2023-04-28T08:04:14.521Z,10.4
2023-04-28T08:05:21.242Z,10.3
2023-04-28T08:06:28.190Z,10.2
2023-04-28T08:07:35.289Z,10.2
2023-04-28T08:08:41.878Z,10.3
2023-04-28T08:09:49.032Z,10.5
2023-04-28T08:10:56.120Z,10.7
2023-04-28T08:12:03.198Z,10.7
2023-04-28T08:13:10.312Z,10.7
2023-04-28T08:14:17.295Z,10.6
2023-04-28T08:15:23.973Z,10.5
2023-04-28T08:16:31.072Z,10.5
2023-04-28T08:17:38.249Z,10.4
2023-04-28T08:18:45.323Z,10.3
2023-04-28T08:19:51.873Z,10.3
2023-04-28T08:20:59.021Z,10.2
2023-04-28T08:22:06.835Z,10.2
2023-04-28T08:23:13.179Z,10.2
2023-04-28T08:24:20.310Z,10.2
2023-04-28T08:25:27.037Z,10.2
2023-04-28T08:26:33.948Z,10.2
2023-04-28T08:27:41.062Z,10.2
2023-04-28T08:28:48.275Z,10.1
2023-04-28T08:29:55.337Z,10.1
2023-04-28T08:31:01.915Z,10.1
2023-04-28T08:32:09.053Z,10.1
2023-04-28T08:33:16.165Z,10.1
2023-04-28T08:34:23.265Z,10.1
2023-04-28T08:35:30.328Z,10.1
2023-04-28T08:36:36.885Z,10.1
2023-04-28T08:37:44.492Z,10.1
2023-04-28T08:38:51.106Z,10.2
2023-04-28T08:39:58.234Z,10.4
2023-04-28T08:41:05.329Z,10.5
2023-04-28T08:42:11.946Z,10.6
2023-04-28T08:43:19.030Z,10.8
2023-04-28T08:44:26.145Z,10.9
2023-04-28T08:45:33.246Z,11
2023-04-28T08:47:46.945Z,11.3
2023-04-28T08:48:54.064Z,11.3
2023-04-28T08:50:01.127Z,11.5
2023-04-28T08:51:08.200Z,11.5
2023-04-28T08:52:15.378Z,11.5
2023-04-28T08:53:21.955Z,11.5
2023-04-28T08:54:29.141Z,11.4
2023-04-28T08:55:36.149Z,11.3
2023-04-28T08:56:43.262Z,11.2
2023-04-28T08:57:50.303Z,11.1
2023-04-28T08:58:56.920Z,11
2023-04-28T09:00:05.104Z,11
2023-04-28T09:01:11.135Z,10.9
2023-04-28T09:02:18.352Z,10.9
2023-04-28T09:03:25.140Z,10.7
2023-04-28T09:04:32.160Z,10.7
2023-04-28T09:05:39.754Z,10.6
2023-04-28T09:06:46.273Z,10.6
2023-04-28T09:07:53.267Z,10.5
2023-04-28T09:08:59.835Z,10.5
2023-04-28T09:10:06.968Z,10.4
2023-04-28T09:11:14.048Z,10.4
2023-04-28T09:12:21.174Z,10.5
2023-04-28T09:13:28.406Z,10.6
2023-04-28T09:14:34.865Z,10.8
2023-04-28T09:15:41.955Z,10.9
2023-04-28T09:16:49.208Z,11.1
2023-04-28T09:17:56.218Z,11.3
2023-04-28T09:19:03.234Z,11.4
2023-04-28T09:20:09.855Z,11.6
2023-04-28T09:21:16.968Z,11.7
2023-04-28T09:22:26.848Z,11.8
2023-04-28T09:23:31.121Z,11.9
2023-04-28T09:24:38.484Z,12
2023-04-28T09:25:44.873Z,12
2023-04-28T09:26:54.117Z,11.9
2023-04-28T09:27:59.079Z,11.9
2023-04-28T09:30:13.297Z,11.6
2023-04-28T09:31:19.973Z,11.5
2023-04-28T09:32:27.082Z,11.3
2023-04-28T09:33:34.097Z,11.2
2023-04-28T09:34:41.194Z,11.1
2023-04-28T09:35:48.379Z,10.9
2023-04-28T09:36:54.923Z,10.8
2023-04-28T09:38:01.998Z,10.7
2023-04-28T09:39:09.060Z,10.6
2023-04-28T09:40:16.374Z,10.5
2023-04-28T09:41:23.342Z,10.3
2023-04-28T09:42:29.858Z,10.2
2023-04-28T09:43:37.021Z,10.2
2023-04-28T09:44:44.160Z,10.1
2023-04-28T09:45:51.301Z,10
2023-04-28T09:46:58.338Z,10
2023-04-28T09:48:05.022Z,10
2023-04-28T09:49:11.988Z,10
2023-04-28T09:51:26.282Z,10.3
2023-04-28T09:52:33.313Z,10.5
2023-04-28T09:53:39.893Z,10.6
2023-04-28T09:54:47.054Z,10.6
2023-04-28T09:55:54.112Z,10.6
2023-04-28T09:57:01.221Z,10.6
2023-04-28T09:58:07.817Z,10.5
2023-04-28T09:59:14.959Z,10.5
2023-04-28T10:00:22.080Z,10.5
2023-04-28T10:01:29.189Z,10.5
2023-04-28T10:03:43.486Z,10.7
2023-04-28T10:04:50.025Z,10.9
2023-04-28T10:05:57.585Z,11.1
2023-04-28T10:07:04.101Z,11.3
2023-04-28T10:08:11.201Z,11.3
2023-04-28T10:09:18.394Z,11.3
2023-04-28T10:10:25.018Z,11.3
2023-04-28T10:11:31.989Z,11.3
2023-04-28T10:12:39.352Z,11.2
2023-04-28T10:13:46.378Z,11.2
2023-04-28T10:14:52.835Z,11.1
2023-04-28T10:16:00.138Z,11
2023-04-28T10:17:07.029Z,11
2023-04-28T10:18:14.142Z,10.9
2023-04-28T10:19:21.337Z,10.9
2023-04-28T10:20:27.855Z,10.9
2023-04-28T10:21:34.959Z,10.8
2023-04-28T10:22:42.055Z,10.8
2023-04-28T10:23:49.156Z,10.8
2023-04-28T10:24:56.296Z,10.8
2023-04-28T10:26:02.804Z,10.8
2023-04-28T10:27:09.955Z,10.8
2023-04-28T10:28:17.060Z,11
2023-04-28T10:29:24.119Z,11.1
2023-04-28T10:30:31.314Z,11.1
2023-04-28T10:31:37.869Z,11.1
2023-04-28T10:32:44.986Z,11.3
2023-04-28T10:33:52.078Z,11.4
2023-04-28T10:34:59.200Z,11.7
2023-04-28T10:36:06.292Z,11.8
2023-04-28T10:37:12.853Z,11.8
2023-04-28T10:38:19.953Z,11.8
2023-04-28T10:39:27.131Z,11.8
2023-04-28T10:40:34.246Z,11.8
2023-04-28T10:41:41.289Z,11.7
2023-04-28T10:42:47.897Z,11.7
2023-04-28T10:43:54.982Z,11.8
2023-04-28T10:45:02.039Z,11.8
2023-04-28T10:46:09.295Z,11.7
2023-04-28T10:47:16.326Z,11.7
2023-04-28T10:48:22.891Z,11.6
2023-04-28T10:49:30.030Z,11.5
2023-04-28T10:50:38.979Z,11.4
2023-04-28T10:51:44.215Z,11.3
2023-04-28T10:52:51.297Z,11.3
2023-04-28T10:55:12.442Z,11.1
2023-04-28T10:56:12.059Z,11.1
2023-04-28T10:58:26.305Z,11.1
2023-04-28T10:59:32.896Z,11.1
2023-04-28T11:00:39.988Z,11.1
2023-04-28T11:01:47.184Z,11.1
2023-04-28T11:02:54.466Z,11.1
2023-04-28T11:04:01.438Z,11.2
2023-04-28T11:05:08.252Z,11.2
2023-04-28T11:06:15.066Z,11.2
2023-04-28T11:07:22.083Z,11.2
2023-04-28T11:08:29.201Z,11.2
2023-04-28T11:09:36.335Z,11.3
2023-04-28T11:10:42.885Z,11.4
2023-04-28T11:11:50.056Z,11.5
2023-04-28T11:12:57.657Z,11.6
2023-04-28T11:14:04.213Z,11.6
2023-04-28T11:15:10.814Z,11.6
2023-04-28T11:16:18.041Z,11.5
2023-04-28T11:17:25.061Z,11.5
2023-04-28T11:18:32.132Z,11.6
2023-04-28T11:19:39.426Z,11.7
2023-04-28T11:20:45.838Z,11.7
2023-04-28T11:21:52.938Z,11.8
2023-04-28T11:23:00.058Z,12
2023-04-28T11:24:07.167Z,11.9
2023-04-28T11:25:14.280Z,11.8
2023-04-28T11:26:20.809Z,11.8
2023-04-28T11:27:27.920Z,11.8
2023-04-28T11:28:34.988Z,11.7
2023-04-28T11:29:42.130Z,11.8
2023-04-28T11:30:49.236Z,11.8
2023-04-28T11:31:55.869Z,11.9
2023-04-28T11:33:02.985Z,11.8
2023-04-28T11:34:10.527Z,11.8
2023-04-28T11:35:17.138Z,11.8
2023-04-28T11:36:24.249Z,11.7
2023-04-28T11:37:30.834Z,11.7
2023-04-28T11:38:37.950Z,11.6
2023-04-28T11:39:45.113Z,11.6
2023-04-28T11:40:52.149Z,11.6
2023-04-28T11:41:59.253Z,11.5
2023-04-28T11:43:05.877Z,11.5
2023-04-28T11:44:12.938Z,11.5
2023-04-28T11:45:20.132Z,11.5
2023-04-28T11:46:27.215Z,11.5
2023-04-28T11:47:35.354Z,11.5
2023-04-28T11:48:40.869Z,11.4
2023-04-28T11:49:47.994Z,11.3
2023-04-28T11:50:55.101Z,11.2
2023-04-28T11:52:02.193Z,11.1
2023-04-28T11:53:09.318Z,11
2023-04-28T11:54:15.882Z,11
2023-04-28T11:55:23.022Z,11
2023-04-28T11:56:30.098Z,11.1
2023-04-28T11:58:44.301Z,11.3
2023-04-28T11:59:51.166Z,11.3
2023-04-28T12:00:57.970Z,11.3
2023-04-28T12:02:06.823Z,11.3
2023-04-28T12:03:12.275Z,11.2
2023-04-28T12:04:19.446Z,11.1
2023-04-28T12:05:25.991Z,11.1
2023-04-28T12:06:32.981Z,11.1
2023-04-28T12:07:40.072Z,11.1
2023-04-28T12:08:47.211Z,11.1
2023-04-28T12:09:54.315Z,11.1
2023-04-28T12:11:00.875Z,11.1
2023-04-28T12:12:08.001Z,11.1
2023-04-28T12:13:15.093Z,11
2023-04-28T12:14:22.165Z,11
2023-04-28T12:15:29.369Z,11
2023-04-28T12:16:36.410Z,11.1
2023-04-28T12:17:43.012Z,11.1
2023-04-28T12:18:50.137Z,11.1
2023-04-28T12:19:57.233Z,11.1
2023-04-28T12:21:03.794Z,11
2023-04-28T12:22:10.913Z,11.1
2023-04-28T12:23:18.012Z,11.1
2023-04-28T12:24:25.146Z,11.1
2023-04-28T12:26:38.830Z,11.1
2023-04-28T12:27:45.943Z,11.1
2023-04-28T12:28:53.011Z,11.1
2023-04-28T12:30:00.216Z,11.2
2023-04-28T12:31:07.263Z,11.2
2023-04-28T12:32:13.783Z,11.3
2023-04-28T12:33:20.890Z,11.3
2023-04-28T12:34:28.041Z,11.3
2023-04-28T12:35:35.171Z,11.3
2023-04-28T12:36:42.223Z,11.3
2023-04-28T12:37:48.833Z,11.3
2023-04-28T12:38:55.951Z,11.4
2023-04-28T12:40:03.013Z,11.5
2023-04-28T12:41:10.155Z,11.5
2023-04-28T12:42:17.265Z,11.5
2023-04-28T12:43:23.831Z,11.6
2023-04-28T12:44:30.899Z,11.6
2023-04-28T12:45:38.912Z,11.7
2023-04-28T12:46:45.267Z,11.7
2023-04-28T12:47:52.281Z,11.7
2023-04-28T12:48:58.865Z,11.7
2023-04-28T12:50:05.969Z,11.7
2023-04-28T12:51:13.019Z,11.6
2023-04-28T12:52:20.144Z,11.6
2023-04-28T12:53:27.220Z,11.6
2023-04-28T12:54:33.860Z,11.7
2023-04-28T12:55:40.923Z,11.7
2023-04-28T12:56:48.054Z,11.7
2023-04-28T12:57:55.183Z,11.7
2023-04-28T12:59:02.256Z,11.7
2023-04-28T13:00:08.939Z,11.7
2023-04-28T13:02:23.167Z,11.7
2023-04-28T13:03:30.346Z,11.6
2023-04-28T13:04:37.612Z,11.6
2023-04-28T13:05:43.817Z,11.5
2023-04-28T13:06:50.973Z,11.5
2023-04-28T13:07:58.076Z,11.5
2023-04-28T13:09:05.205Z,11.4
2023-04-28T13:10:12.287Z,11.4
2023-04-28T13:11:22.813Z,11.4
2023-04-28T13:12:26.049Z,11.4
2023-04-28T13:13:33.065Z,11.4
2023-04-28T13:14:40.207Z,11.5
2023-04-28T13:15:47.485Z,11.6
2023-04-28T13:16:53.877Z,11.7
2023-04-28T13:18:01.061Z,11.7
2023-04-28T13:19:08.128Z,11.7
2023-04-28T13:20:15.761Z,11.7
2023-04-28T13:21:21.829Z,11.6
2023-04-28T13:22:28.956Z,11.7
2023-04-28T13:23:35.988Z,11.6
2023-04-28T13:24:43.432Z,11.6
2023-04-28T13:25:50.228Z,11.6
2023-04-28T13:26:56.797Z,11.6
2023-04-28T13:28:03.898Z,11.5
2023-04-28T13:29:10.997Z,11.5
2023-04-28T13:30:18.165Z,11.5
2023-04-28T13:31:25.214Z,11.5
2023-04-28T13:32:31.800Z,11.5
2023-04-28T13:33:38.910Z,11.6
2023-04-28T13:34:46.522Z,11.7
2023-04-28T13:35:53.099Z,11.7
2023-04-28T13:37:00.201Z,11.8
2023-04-28T13:38:06.866Z,11.8
2023-04-28T13:39:13.889Z,11.8
2023-04-28T13:40:21.097Z,11.9
2023-04-28T13:41:28.160Z,11.8
2023-04-28T13:42:35.216Z,11.8
2023-04-28T13:43:41.766Z,11.8
2023-04-28T13:44:48.949Z,11.7
2023-04-28T13:45:56.107Z,11.7
2023-04-28T13:47:03.106Z,11.7
2023-04-28T13:48:10.287Z,11.7
2023-04-28T13:49:16.808Z,11.7
2023-04-28T13:50:23.907Z,11.6
2023-04-28T13:51:31.042Z,11.7
2023-04-28T13:52:38.234Z,11.7
2023-04-28T13:53:45.276Z,11.7
2023-04-28T13:54:51.865Z,11.7
2023-04-28T13:55:58.940Z,11.7
2023-04-28T13:57:06.094Z,11.6
2023-04-28T13:58:13.149Z,11.5
2023-04-28T13:59:20.280Z,11.4
2023-04-28T14:00:26.822Z,11.4
2023-04-28T14:01:33.979Z,11.3
2023-04-28T14:02:41.133Z,11.2
2023-04-28T14:03:48.346Z,11.1
2023-04-28T14:06:01.828Z,11.1
2023-04-28T14:07:08.890Z,11.1
2023-04-28T14:08:16.384Z,11.1
2023-04-28T14:09:23.162Z,11.1
2023-04-28T14:10:30.282Z,11.1
2023-04-28T14:11:36.858Z,11.1
2023-04-28T14:12:43.926Z,11.1
2023-04-28T14:13:51.052Z,11.1
2023-04-28T14:14:58.233Z,11.2
2023-04-28T14:16:05.257Z,11.1
2023-04-28T14:17:11.840Z,11.1
2023-04-28T14:18:18.929Z,11
2023-04-28T14:19:26.057Z,11
2023-04-28T14:20:33.236Z,11
2023-04-28T14:21:40.244Z,11
2023-04-28T14:22:46.847Z,11
2023-04-28T14:23:54.468Z,11
2023-04-28T14:25:01.067Z,11
2023-04-28T14:26:08.222Z,11.1
2023-04-28T14:27:15.270Z,11.1
2023-04-28T14:28:21.849Z,11.1
2023-04-28T14:29:29.023Z,11
2023-04-28T14:30:36.076Z,11
2023-04-28T14:31:43.340Z,10.9
2023-04-28T14:32:49.739Z,11
2023-04-28T14:33:56.894Z,11
2023-04-28T14:35:03.969Z,10.9
2023-04-28T14:36:11.059Z,10.9
2023-04-28T14:37:18.221Z,10.8
2023-04-28T14:38:24.790Z,10.8
2023-04-28T14:39:31.829Z,10.9
2023-04-28T14:40:39.005Z,10.8
2023-04-28T14:41:46.143Z,10.9
2023-04-28T14:42:53.199Z,10.9
2023-04-28T14:43:59.777Z,10.8
2023-04-28T14:45:06.909Z,10.8
2023-04-28T14:46:14.004Z,10.9
2023-04-28T14:47:21.175Z,10.9
2023-04-28T14:48:28.248Z,10.8
2023-04-28T14:49:34.823Z,10.8
2023-04-28T14:50:41.850Z,10.8
2023-04-28T14:51:48.997Z,10.8
2023-04-28T14:52:56.091Z,10.8
2023-04-28T14:54:03.193Z,10.7
2023-04-28T14:55:09.798Z,10.7
2023-04-28T14:56:19.002Z,10.7
2023-04-28T14:57:23.962Z,10.7
2023-04-28T14:58:31.119Z,10.7
2023-04-28T14:59:38.248Z,10.7
2023-04-28T15:00:44.847Z,10.7
2023-04-28T15:01:52.030Z,10.7
2023-04-28T15:02:59.214Z,10.7
2023-04-28T15:04:06.253Z,10.7
2023-04-28T15:05:13.224Z,10.8
2023-04-28T15:06:19.928Z,10.8
2023-04-28T15:07:26.928Z,10.9
2023-04-28T15:09:41.086Z,11
2023-04-28T15:10:48.314Z,10.9
2023-04-28T15:11:54.814Z,10.8
2023-04-28T15:13:01.940Z,10.8
2023-04-28T15:14:09.070Z,10.8
2023-04-28T15:15:16.234Z,10.8
2023-04-28T15:16:23.250Z,10.8
2023-04-28T15:17:29.891Z,10.8
2023-04-28T15:18:36.956Z,10.8
2023-04-28T15:19:44.049Z,10.9
2023-04-28T15:20:51.140Z,10.8
2023-04-28T15:21:58.287Z,10.8
2023-04-28T15:23:04.881Z,10.8
2023-04-28T15:24:11.892Z,10.8
2023-04-28T15:25:19.070Z,10.8
2023-04-28T15:26:27.193Z,10.8
2023-04-28T15:27:33.793Z,10.7
2023-04-28T15:28:39.858Z,10.7
2023-04-28T15:29:47.033Z,10.7
2023-04-28T15:30:54.044Z,10.7
2023-04-28T15:32:01.372Z,10.6
2023-04-28T15:33:08.367Z,10.6
2023-04-28T15:34:14.866Z,10.6
2023-04-28T15:35:21.965Z,10.7
2023-04-28T15:36:29.088Z,10.7
2023-04-28T15:37:36.149Z,10.7
2023-04-28T15:38:42.728Z,10.7
2023-04-28T15:39:49.848Z,10.7
2023-04-28T15:40:57.022Z,10.7
2023-04-28T15:42:06.839Z,10.6
2023-04-28T15:43:11.147Z,10.5
2023-04-28T15:44:18.311Z,10.5
2023-04-28T15:45:24.957Z,10.5